< < Back
Terminal Aerodrome Forecast


Current Version              Previous Versions:   1  2  3  4  5  6  7  8  9  

Terminal Aerodrome Forecast

085
FTUS42 KCAE 020800 AAA
TAFCAE
TAF AMD
KCAE 020831Z 0209/0306 VRB03KT P6SM SCT150
     FM021500 23005KT P6SM SCT030 BKN200
     FM021800 18008KT P6SM SCT040 BKN150
     FM030300 VRB03KT P6SM BKN150=

Latest METAR

458
SAUS80 KWBC 021700
MTRCAE
METAR KCAE 021656Z 14007KT 10SM FEW035 SCT150 34/21 A3005 RMK AO2 SLP171
T03440206


USA.gov is the U.S. government's official web portal to all federal, state and local government web resources and services.